createdAt,value
2018-12-04T00:00:55.314Z,942.44
2018-12-04T00:01:55.309Z,942.43
2018-12-04T00:02:55.298Z,942.44
2018-12-04T00:03:55.292Z,942.47
2018-12-04T00:04:55.287Z,942.50
2018-12-04T00:05:55.283Z,942.49
2018-12-04T00:06:55.291Z,942.51
2018-12-04T00:07:55.260Z,942.51
2018-12-04T00:08:57.915Z,942.57
2018-12-04T00:09:55.262Z,942.61
2018-12-04T00:10:55.263Z,942.63
2018-12-04T00:11:55.244Z,942.65
2018-12-04T00:12:55.238Z,942.65
2018-12-04T00:13:55.231Z,942.69
2018-12-04T00:14:55.234Z,942.74
2018-12-04T00:15:55.209Z,942.75
2018-12-04T00:16:55.212Z,942.73
2018-12-04T00:17:55.203Z,942.75
2018-12-04T00:18:55.200Z,942.76
2018-12-04T00:19:55.185Z,942.77
2018-12-04T00:20:55.181Z,942.80
2018-12-04T00:21:55.176Z,942.75
2018-12-04T00:22:55.160Z,942.76
2018-12-04T00:23:55.151Z,942.71
2018-12-04T00:24:55.157Z,942.71
2018-12-04T00:25:55.149Z,942.70
2018-12-04T00:26:55.144Z,942.72
2018-12-04T00:27:55.134Z,942.72
2018-12-04T00:28:55.130Z,942.73
2018-12-04T00:29:55.122Z,942.75
2018-12-04T00:30:55.103Z,942.65
2018-12-04T00:31:55.103Z,942.67
2018-12-04T00:32:55.101Z,942.66
2018-12-04T00:33:55.119Z,942.68
2018-12-04T00:34:55.094Z,942.69
2018-12-04T00:35:55.086Z,942.70
2018-12-04T00:36:55.078Z,942.69
2018-12-04T00:37:55.070Z,942.74
2018-12-04T00:38:55.064Z,942.74
2018-12-04T00:39:55.063Z,942.77
2018-12-04T00:40:55.055Z,942.73
2018-12-04T00:41:55.048Z,942.69
2018-12-04T00:42:55.057Z,942.74
2018-12-04T00:43:55.034Z,942.74
2018-12-04T00:44:55.027Z,942.76
2018-12-04T00:45:55.024Z,942.73
2018-12-04T00:46:55.008Z,942.76
2018-12-04T00:47:54.998Z,942.75
2018-12-04T00:48:54.999Z,942.72
2018-12-04T00:49:54.996Z,942.76
2018-12-04T00:50:54.989Z,942.84
2018-12-04T00:51:54.984Z,942.83
2018-12-04T00:52:54.980Z,942.80
2018-12-04T00:53:54.978Z,942.80
2018-12-04T00:54:54.964Z,942.84
2018-12-04T00:55:54.956Z,942.92
2018-12-04T00:56:54.951Z,942.93
2018-12-04T00:57:54.944Z,942.85
2018-12-04T00:58:54.937Z,942.99
2018-12-04T00:59:54.933Z,943.03
2018-12-04T01:00:54.934Z,943.05
2018-12-04T01:01:54.923Z,943.09
2018-12-04T01:02:54.907Z,943.04
2018-12-04T01:03:54.895Z,943.08
2018-12-04T01:04:54.899Z,943.10
2018-12-04T01:05:54.897Z,943.13
2018-12-04T01:06:54.885Z,943.10
2018-12-04T01:07:54.879Z,943.07
2018-12-04T01:08:54.874Z,943.16
2018-12-04T01:09:54.868Z,943.17
2018-12-04T01:10:54.852Z,943.14
2018-12-04T01:11:54.853Z,943.23
2018-12-04T01:12:54.846Z,943.19
2018-12-04T01:13:54.850Z,943.25
2018-12-04T01:14:54.864Z,943.28
2018-12-04T01:15:54.833Z,943.36
2018-12-04T01:16:54.823Z,943.35
2018-12-04T01:17:54.816Z,943.38
2018-12-04T01:18:54.809Z,943.43
2018-12-04T01:19:54.792Z,943.39
2018-12-04T01:20:54.799Z,943.44
2018-12-04T01:21:54.795Z,943.41
2018-12-04T01:22:54.782Z,943.38
2018-12-04T01:23:54.780Z,943.36
2018-12-04T01:24:54.773Z,943.35
2018-12-04T01:25:54.784Z,943.34
2018-12-04T01:26:54.759Z,943.36
2018-12-04T01:27:54.753Z,943.40
2018-12-04T01:28:54.748Z,943.37
2018-12-04T01:29:54.739Z,943.41
2018-12-04T01:30:54.737Z,943.44
2018-12-04T01:31:54.758Z,943.45
2018-12-04T01:32:54.723Z,943.45
2018-12-04T01:33:54.716Z,943.44
2018-12-04T01:34:54.699Z,943.48
2018-12-04T01:35:54.706Z,943.55
2018-12-04T01:36:54.700Z,943.49
2018-12-04T01:37:54.693Z,943.57
2018-12-04T01:38:54.693Z,943.56
2018-12-04T01:39:54.680Z,943.56
2018-12-04T01:40:54.668Z,943.58
2018-12-04T01:41:54.665Z,943.57
2018-12-04T01:42:54.650Z,943.60
2018-12-04T01:43:54.656Z,943.54
2018-12-04T01:44:54.645Z,943.55
2018-12-04T01:45:54.637Z,943.57
2018-12-04T01:46:54.634Z,943.57
2018-12-04T01:47:54.619Z,943.57
2018-12-04T01:48:54.623Z,943.59
2018-12-04T01:49:54.969Z,943.59
2018-12-04T01:50:54.617Z,943.58
2018-12-04T01:51:54.608Z,943.58
2018-12-04T01:52:54.596Z,943.53
2018-12-04T01:53:54.591Z,943.53
2018-12-04T01:54:54.601Z,943.53
2018-12-04T01:55:54.580Z,943.50
2018-12-04T01:56:54.574Z,943.48
2018-12-04T01:57:54.568Z,943.48
2018-12-04T01:58:54.551Z,943.50
2018-12-04T01:59:54.560Z,943.51
2018-12-04T02:00:54.548Z,943.46
2018-12-04T02:01:54.545Z,943.45
2018-12-04T02:02:54.538Z,943.46
2018-12-04T02:03:54.535Z,943.47
2018-12-04T02:04:54.546Z,943.51
2018-12-04T02:05:54.524Z,943.46
2018-12-04T02:06:54.514Z,943.42
2018-12-04T02:07:54.523Z,943.48
2018-12-04T02:08:54.499Z,943.48
2018-12-04T02:09:54.495Z,943.45
2018-12-04T02:10:54.485Z,943.38
2018-12-04T02:11:54.482Z,943.36
2018-12-04T02:12:54.495Z,943.39
2018-12-04T02:13:54.469Z,943.39
2018-12-04T02:14:54.464Z,943.46
2018-12-04T02:15:54.457Z,943.46
2018-12-04T02:16:54.459Z,943.50
2018-12-04T02:17:54.445Z,943.44
2018-12-04T02:18:54.439Z,943.49
2018-12-04T02:19:54.432Z,943.50
2018-12-04T02:20:54.428Z,943.45
2018-12-04T02:21:54.458Z,943.54
2018-12-04T02:22:54.415Z,943.59
2018-12-04T02:23:54.400Z,943.60
2018-12-04T02:24:54.402Z,943.61
2018-12-04T02:25:54.396Z,943.60
2018-12-04T02:26:54.395Z,943.60
2018-12-04T02:27:54.393Z,943.58
2018-12-04T02:28:54.396Z,943.56
2018-12-04T02:29:54.372Z,943.59
2018-12-04T02:30:54.366Z,943.59
2018-12-04T02:31:54.375Z,943.54
2018-12-04T02:32:54.353Z,943.54
2018-12-04T02:33:54.357Z,943.55
2018-12-04T02:34:54.340Z,943.56
2018-12-04T02:35:54.337Z,943.54
2018-12-04T02:36:54.327Z,943.52
2018-12-04T02:37:54.341Z,943.50
2018-12-04T02:38:54.318Z,943.53
2018-12-04T02:39:56.633Z,943.54
2018-12-04T02:40:54.307Z,943.58
2018-12-04T02:41:54.300Z,943.55
2018-12-04T02:42:54.286Z,943.59
2018-12-04T02:43:54.286Z,943.58
2018-12-04T02:44:54.309Z,943.59
2018-12-04T02:45:54.297Z,943.60
2018-12-04T02:46:54.267Z,943.59
2018-12-04T02:47:54.281Z,943.63
2018-12-04T02:48:54.256Z,943.62
2018-12-04T02:49:54.249Z,943.62
2018-12-04T02:50:54.250Z,943.63
2018-12-04T02:51:54.236Z,943.66
2018-12-04T02:52:54.231Z,943.66
2018-12-04T02:53:54.224Z,943.67
2018-12-04T02:54:54.218Z,943.64
2018-12-04T02:55:54.255Z,943.63
2018-12-04T02:56:54.224Z,943.61
2018-12-04T02:57:54.200Z,943.68
2018-12-04T02:58:54.193Z,943.65
2018-12-04T02:59:54.189Z,943.64
2018-12-04T03:00:54.182Z,943.67
2018-12-04T03:01:54.170Z,943.67
2018-12-04T03:02:54.173Z,943.67
2018-12-04T03:03:54.163Z,943.72
2018-12-04T03:04:54.159Z,943.74
2018-12-04T03:05:54.154Z,943.77
2018-12-04T03:06:54.149Z,943.78
2018-12-04T03:07:54.140Z,943.80
2018-12-04T03:08:54.134Z,943.84
2018-12-04T03:09:54.127Z,943.78
2018-12-04T03:10:54.164Z,943.78
2018-12-04T03:11:54.107Z,943.81
2018-12-04T03:12:54.109Z,943.81
2018-12-04T03:13:54.104Z,943.85
2018-12-04T03:14:54.096Z,943.86
2018-12-04T03:15:54.091Z,943.86
2018-12-04T03:16:54.110Z,943.83
2018-12-04T03:17:54.079Z,943.90
2018-12-04T03:18:54.077Z,943.89
2018-12-04T03:19:54.057Z,943.89
2018-12-04T03:20:54.118Z,943.90
2018-12-04T03:21:54.058Z,943.89
2018-12-04T03:22:54.046Z,943.95
2018-12-04T03:23:54.044Z,943.93
2018-12-04T03:24:54.046Z,943.93
2018-12-04T03:25:54.036Z,943.95
2018-12-04T03:26:54.043Z,943.92
2018-12-04T03:27:54.018Z,943.97
2018-12-04T03:28:54.008Z,943.93
2018-12-04T03:29:54.005Z,943.95
2018-12-04T03:30:54.029Z,943.95
2018-12-04T03:31:54.004Z,943.98
2018-12-04T03:32:53.992Z,944.06
2018-12-04T03:33:53.982Z,944.02
2018-12-04T03:34:53.976Z,944.05
2018-12-04T03:35:53.972Z,944.08
2018-12-04T03:36:53.963Z,944.11
2018-12-04T03:37:53.972Z,944.15
2018-12-04T03:38:53.945Z,944.14
2018-12-04T03:39:53.944Z,944.16
2018-12-04T03:40:53.940Z,944.15
2018-12-04T03:41:53.932Z,944.18
2018-12-04T03:42:53.926Z,944.15
2018-12-04T03:43:53.924Z,944.17
2018-12-04T03:44:53.906Z,944.18
2018-12-04T03:45:53.925Z,944.20
2018-12-04T03:46:53.903Z,944.17
2018-12-04T03:47:53.906Z,944.16
2018-12-04T03:48:53.891Z,944.20
2018-12-04T03:49:53.883Z,944.19
2018-12-04T03:50:53.881Z,944.17
2018-12-04T03:51:53.877Z,944.21
2018-12-04T03:52:53.858Z,944.21
2018-12-04T03:53:53.862Z,944.14
2018-12-04T03:54:53.855Z,944.12
2018-12-04T03:55:53.854Z,944.16
2018-12-04T03:56:53.845Z,944.21
2018-12-04T03:57:53.838Z,944.18
2018-12-04T03:58:53.829Z,944.18
2018-12-04T03:59:53.837Z,944.20
2018-12-04T04:00:53.818Z,944.22
2018-12-04T04:01:53.820Z,944.27
2018-12-04T04:02:53.812Z,944.27
2018-12-04T04:03:53.825Z,944.25
2018-12-04T04:04:53.787Z,944.19
2018-12-04T04:05:53.788Z,944.23
2018-12-04T04:06:53.807Z,944.22
2018-12-04T04:07:53.777Z,944.21
2018-12-04T04:08:53.769Z,944.20
2018-12-04T04:09:53.763Z,944.21
2018-12-04T04:10:53.762Z,944.26
2018-12-04T04:11:53.752Z,944.25
2018-12-04T04:12:53.746Z,944.28
2018-12-04T04:13:53.741Z,944.32
2018-12-04T04:14:53.734Z,944.35
2018-12-04T04:15:53.715Z,944.36
2018-12-04T04:16:53.717Z,944.24
2018-12-04T04:17:53.728Z,944.23
2018-12-04T04:18:53.710Z,944.23
2018-12-04T04:19:53.707Z,944.19
2018-12-04T04:20:55.822Z,944.22
2018-12-04T04:21:53.702Z,944.23
2018-12-04T04:22:53.681Z,944.26
2018-12-04T04:23:53.679Z,944.22
2018-12-04T04:24:53.673Z,944.23
2018-12-04T04:25:53.665Z,944.25
2018-12-04T04:26:53.653Z,944.24
2018-12-04T04:27:53.654Z,944.32
2018-12-04T04:28:53.653Z,944.27
2018-12-04T04:29:53.631Z,944.34
2018-12-04T04:30:53.637Z,944.31
2018-12-04T04:31:53.649Z,944.29
2018-12-04T04:32:53.643Z,944.30
2018-12-04T04:33:53.614Z,944.31
2018-12-04T04:34:53.612Z,944.33
2018-12-04T04:35:53.607Z,944.36
2018-12-04T04:36:53.600Z,944.34
2018-12-04T04:37:53.596Z,944.30
2018-12-04T04:38:53.588Z,944.30
2018-12-04T04:39:53.581Z,944.35
2018-12-04T04:40:53.573Z,944.35
2018-12-04T04:41:53.563Z,944.36
2018-12-04T04:42:53.561Z,944.31
2018-12-04T04:43:53.558Z,944.34
2018-12-04T04:44:53.549Z,944.38
2018-12-04T04:45:53.543Z,944.41
2018-12-04T04:46:53.535Z,944.37
2018-12-04T04:47:53.527Z,944.40
2018-12-04T04:48:53.521Z,944.37
2018-12-04T04:49:53.518Z,944.41
2018-12-04T04:50:53.514Z,944.41
2018-12-04T04:51:53.507Z,944.46
2018-12-04T04:52:53.495Z,944.42
2018-12-04T04:53:53.495Z,944.45
2018-12-04T04:54:53.475Z,944.48
2018-12-04T04:55:53.477Z,944.45
2018-12-04T04:56:53.475Z,944.44
2018-12-04T04:57:53.467Z,944.46
2018-12-04T04:58:53.466Z,944.47
2018-12-04T04:59:53.459Z,944.37
2018-12-04T05:00:53.448Z,944.42
2018-12-04T05:01:53.445Z,944.41
2018-12-04T05:02:53.430Z,944.42
2018-12-04T05:03:53.426Z,944.43
2018-12-04T05:04:53.423Z,944.42
2018-12-04T05:05:53.412Z,944.46
2018-12-04T05:06:53.410Z,944.42
2018-12-04T05:07:53.404Z,944.45
2018-12-04T05:08:53.400Z,944.45
2018-12-04T05:09:53.395Z,944.45
2018-12-04T05:10:53.383Z,944.48
2018-12-04T05:11:55.854Z,944.50
2018-12-04T05:12:53.381Z,944.47
2018-12-04T05:13:53.364Z,944.53
2018-12-04T05:14:53.358Z,944.52
2018-12-04T05:15:53.352Z,944.53
2018-12-04T05:16:53.347Z,944.54
2018-12-04T05:17:53.340Z,944.51
2018-12-04T05:18:53.332Z,944.51
2018-12-04T05:19:53.328Z,944.56
2018-12-04T05:20:53.346Z,944.52
2018-12-04T05:21:53.314Z,944.53
2018-12-04T05:22:53.555Z,944.58
2018-12-04T05:23:53.386Z,944.57
2018-12-04T05:24:53.290Z,944.65
2018-12-04T05:25:53.291Z,944.60
2018-12-04T05:26:53.277Z,944.64
2018-12-04T05:27:53.267Z,944.63
2018-12-04T05:28:53.271Z,944.66
2018-12-04T05:29:53.286Z,944.72
2018-12-04T05:30:53.264Z,944.74
2018-12-04T05:31:53.262Z,944.76
2018-12-04T05:32:53.249Z,944.76
2018-12-04T05:33:53.868Z,944.78
2018-12-04T05:34:53.227Z,944.81
2018-12-04T05:35:53.219Z,944.83
2018-12-04T05:36:53.220Z,944.84
2018-12-04T05:37:53.213Z,944.91
2018-12-04T05:38:53.207Z,944.90
2018-12-04T05:39:53.192Z,944.92
2018-12-04T05:40:53.195Z,944.96
2018-12-04T05:41:53.202Z,945.08
2018-12-04T05:42:53.182Z,945.05
2018-12-04T05:43:53.199Z,945.07
2018-12-04T05:44:53.179Z,945.15
2018-12-04T05:45:53.159Z,945.14
2018-12-04T05:46:53.151Z,945.04
2018-12-04T05:47:53.150Z,945.10
2018-12-04T05:48:53.167Z,945.10
2018-12-04T05:49:53.137Z,945.18
2018-12-04T05:50:53.789Z,945.15
2018-12-04T05:51:53.121Z,945.22
2018-12-04T05:52:53.123Z,945.24
2018-12-04T05:53:53.107Z,945.22
2018-12-04T05:54:53.122Z,945.20
2018-12-04T05:55:53.097Z,945.23
2018-12-04T05:56:53.090Z,945.07
2018-12-04T05:57:53.085Z,945.28
2018-12-04T05:58:53.076Z,945.25
2018-12-04T05:59:53.090Z,945.21
2018-12-04T06:00:53.855Z,945.04
2018-12-04T06:02:53.048Z,945.10
2018-12-04T06:03:53.037Z,945.00
2018-12-04T06:04:53.037Z,944.96
2018-12-04T06:05:53.029Z,945.00
2018-12-04T06:06:53.028Z,945.07
2018-12-04T06:07:53.016Z,945.04
2018-12-04T06:09:14.051Z,945.10
2018-12-04T06:09:53.013Z,945.15
2018-12-04T06:10:53.006Z,945.18
2018-12-04T06:11:52.990Z,945.27
2018-12-04T06:12:52.985Z,945.28
2018-12-04T06:13:52.994Z,945.30
2018-12-04T06:15:13.989Z,945.30
2018-12-04T06:15:52.983Z,945.24
2018-12-04T06:16:52.958Z,945.28
2018-12-04T06:17:52.946Z,945.28
2018-12-04T06:18:52.941Z,945.28
2018-12-04T06:19:52.938Z,945.27
2018-12-04T06:21:13.944Z,945.23
2018-12-04T06:21:52.920Z,945.29
2018-12-04T06:22:52.913Z,945.30
2018-12-04T06:23:52.929Z,945.34
2018-12-04T06:24:52.905Z,945.34
2018-12-04T06:25:52.907Z,945.38
2018-12-04T06:27:13.894Z,945.40
2018-12-04T06:27:53.397Z,945.41
2018-12-04T06:28:52.874Z,945.39
2018-12-04T06:29:52.875Z,945.40
2018-12-04T06:30:52.857Z,945.43
2018-12-04T06:31:52.860Z,945.42
2018-12-04T06:33:13.850Z,945.40
2018-12-04T06:33:52.850Z,945.47
2018-12-04T06:34:52.824Z,945.51
2018-12-04T06:35:52.819Z,945.52
2018-12-04T06:36:52.834Z,945.64
2018-12-04T06:37:52.809Z,945.62
2018-12-04T06:39:13.798Z,945.64
2018-12-04T06:39:52.788Z,945.66
2018-12-04T06:40:52.780Z,945.59
2018-12-04T06:41:52.778Z,945.62
2018-12-04T06:42:52.767Z,945.67
2018-12-04T06:43:52.761Z,945.70
2018-12-04T06:45:13.762Z,945.69
2018-12-04T06:45:52.747Z,945.71
2018-12-04T06:46:52.755Z,945.73
2018-12-04T06:47:52.734Z,945.74
2018-12-04T06:48:52.728Z,945.76
2018-12-04T06:49:52.718Z,945.80
2018-12-04T06:51:13.718Z,945.80
2018-12-04T06:51:54.341Z,945.83
2018-12-04T06:52:52.694Z,945.84
2018-12-04T06:53:52.688Z,945.85
2018-12-04T06:54:52.687Z,945.89
2018-12-04T06:55:52.675Z,945.92
2018-12-04T06:57:13.678Z,945.95
2018-12-04T06:57:52.670Z,945.96
2018-12-04T06:58:53.406Z,946.00
2018-12-04T06:59:52.654Z,946.02
2018-12-04T07:00:52.641Z,946.03
2018-12-04T07:01:52.632Z,946.02
2018-12-04T07:03:13.631Z,945.98
2018-12-04T07:03:52.628Z,946.06
2018-12-04T07:04:52.617Z,946.12
2018-12-04T07:05:52.609Z,946.17
2018-12-04T07:06:52.598Z,946.24
2018-12-04T07:07:52.618Z,946.23
2018-12-04T07:09:13.593Z,946.25
2018-12-04T07:09:52.577Z,946.25
2018-12-04T07:10:52.569Z,946.21
2018-12-04T07:11:52.562Z,946.28
2018-12-04T07:12:52.554Z,946.31
2018-12-04T07:13:52.548Z,946.34
2018-12-04T07:15:13.548Z,946.36
2018-12-04T07:15:52.534Z,946.41
2018-12-04T07:16:52.525Z,946.45
2018-12-04T07:17:52.519Z,946.51
2018-12-04T07:18:52.512Z,946.57
2018-12-04T07:19:52.537Z,946.55
2018-12-04T07:21:13.505Z,946.57
2018-12-04T07:21:52.500Z,946.60
2018-12-04T07:22:52.484Z,946.66
2018-12-04T07:23:52.476Z,946.70
2018-12-04T07:24:52.476Z,946.70
2018-12-04T07:25:52.465Z,946.70
2018-12-04T07:27:13.462Z,946.74
2018-12-04T07:27:52.491Z,946.79
2018-12-04T07:28:52.444Z,946.78
2018-12-04T07:29:52.437Z,946.83
2018-12-04T07:30:52.441Z,946.79
2018-12-04T07:31:52.420Z,946.85
2018-12-04T07:33:13.421Z,946.85
2018-12-04T07:33:52.408Z,946.86
2018-12-04T07:34:52.422Z,946.89
2018-12-04T07:35:52.390Z,946.91
2018-12-04T07:36:52.388Z,946.87
2018-12-04T07:37:52.388Z,946.94
2018-12-04T07:39:13.393Z,946.91
2018-12-04T07:39:52.367Z,946.92
2018-12-04T07:40:52.373Z,946.96
2018-12-04T07:41:53.360Z,946.95
2018-12-04T07:42:52.357Z,946.96
2018-12-04T07:43:52.336Z,947.02
2018-12-04T07:45:13.341Z,947.02
2018-12-04T07:45:52.317Z,947.08
2018-12-04T07:46:52.361Z,947.12
2018-12-04T07:47:52.310Z,947.15
2018-12-04T07:48:52.302Z,947.18
2018-12-04T07:49:52.300Z,947.18
2018-12-04T07:51:13.294Z,947.17
2018-12-04T07:51:52.287Z,947.22
2018-12-04T07:52:52.314Z,947.21
2018-12-04T07:53:52.279Z,947.22
2018-12-04T07:54:52.269Z,947.31
2018-12-04T07:55:52.259Z,947.31
2018-12-04T07:57:13.271Z,947.31
2018-12-04T07:57:52.244Z,947.40
2018-12-04T07:58:52.230Z,947.40
2018-12-04T07:59:52.252Z,947.44
2018-12-04T08:00:52.224Z,947.47
2018-12-04T08:01:52.216Z,947.49
2018-12-04T08:03:13.257Z,947.52
2018-12-04T08:03:52.203Z,947.51
2018-12-04T08:04:52.197Z,947.58
2018-12-04T08:05:52.192Z,947.57
2018-12-04T08:06:52.185Z,947.55
2018-12-04T08:07:52.177Z,947.61
2018-12-04T08:09:13.178Z,947.64
2018-12-04T08:09:52.193Z,947.66
2018-12-04T08:10:52.229Z,947.68
2018-12-04T08:11:52.151Z,947.67
2018-12-04T08:12:52.203Z,947.71
2018-12-04T08:13:52.143Z,947.73
2018-12-04T08:15:13.139Z,947.77
2018-12-04T08:15:52.129Z,947.80
2018-12-04T08:16:52.121Z,947.81
2018-12-04T08:17:52.118Z,947.88
2018-12-04T08:18:52.110Z,947.86
2018-12-04T08:19:52.100Z,947.87
2018-12-04T08:21:13.105Z,947.89
2018-12-04T08:21:52.919Z,947.85
2018-12-04T08:22:52.089Z,947.89
2018-12-04T08:23:52.077Z,947.86
2018-12-04T08:24:52.079Z,947.93
2018-12-04T08:25:52.130Z,947.89
2018-12-04T08:27:13.065Z,947.91
2018-12-04T08:27:52.054Z,947.88
2018-12-04T08:28:52.055Z,947.93
2018-12-04T08:29:52.047Z,947.85
2018-12-04T08:30:52.048Z,947.89
2018-12-04T08:31:52.029Z,947.86
2018-12-04T08:33:13.032Z,947.91
2018-12-04T08:33:52.013Z,947.97
2018-12-04T08:34:52.009Z,947.97
2018-12-04T08:35:52.005Z,948.00
2018-12-04T08:36:52.007Z,947.99
2018-12-04T08:37:51.994Z,947.96
2018-12-04T08:39:13.279Z,948.03
2018-12-04T08:39:51.988Z,948.06
2018-12-04T08:40:51.990Z,948.04
2018-12-04T08:41:51.964Z,948.08
2018-12-04T08:42:51.959Z,948.08
2018-12-04T08:43:51.958Z,948.09
2018-12-04T08:45:12.972Z,948.09
2018-12-04T08:45:51.940Z,948.12
2018-12-04T08:46:51.938Z,948.14
2018-12-04T08:47:51.931Z,948.25
2018-12-04T08:48:51.929Z,948.20
2018-12-04T08:49:51.915Z,948.25
2018-12-04T08:51:12.915Z,948.27
2018-12-04T08:51:51.916Z,948.26
2018-12-04T08:52:51.900Z,948.30
2018-12-04T08:53:51.893Z,948.35
2018-12-04T08:54:51.885Z,948.32
2018-12-04T08:55:51.888Z,948.32
2018-12-04T08:57:12.883Z,948.31
2018-12-04T08:57:51.864Z,948.27
2018-12-04T08:58:51.862Z,948.32
2018-12-04T08:59:51.854Z,948.38
2018-12-04T09:00:51.850Z,948.36
2018-12-04T09:01:51.846Z,948.36
2018-12-04T09:03:12.845Z,948.36
2018-12-04T09:03:51.840Z,948.36
2018-12-04T09:04:51.842Z,948.36
2018-12-04T09:05:51.823Z,948.34
2018-12-04T09:06:51.845Z,948.34
2018-12-04T09:07:51.817Z,948.34
2018-12-04T09:09:12.824Z,948.31
2018-12-04T09:09:51.801Z,948.36
2018-12-04T09:10:51.804Z,948.35
2018-12-04T09:11:51.788Z,948.36
2018-12-04T09:12:51.793Z,948.37
2018-12-04T09:13:51.772Z,948.43
2018-12-04T09:15:12.776Z,948.43
2018-12-04T09:15:51.764Z,948.43
2018-12-04T09:16:51.762Z,948.46
2018-12-04T09:17:51.753Z,948.49
2018-12-04T09:18:51.769Z,948.52
2018-12-04T09:19:51.757Z,948.53
2018-12-04T09:21:12.749Z,948.52
2018-12-04T09:21:51.747Z,948.54
2018-12-04T09:22:51.868Z,948.52
2018-12-04T09:23:51.876Z,948.56
2018-12-04T09:24:51.741Z,948.55
2018-12-04T09:25:51.728Z,948.57
2018-12-04T09:27:12.763Z,948.56
2018-12-04T09:27:51.755Z,948.55
2018-12-04T09:28:51.722Z,948.60
2018-12-04T09:29:51.731Z,948.61
2018-12-04T09:30:51.710Z,948.59
2018-12-04T09:31:51.697Z,948.60
2018-12-04T09:33:12.704Z,948.58
2018-12-04T09:33:51.712Z,948.54
2018-12-04T09:34:51.706Z,948.58
2018-12-04T09:35:51.693Z,948.62
2018-12-04T09:36:51.693Z,948.67
2018-12-04T09:37:51.674Z,948.67
2018-12-04T09:39:12.671Z,948.65
2018-12-04T09:39:51.663Z,948.69
2018-12-04T09:40:51.663Z,948.71
2018-12-04T09:41:51.659Z,948.73
2018-12-04T09:42:51.657Z,948.72
2018-12-04T09:43:51.649Z,948.75
2018-12-04T09:45:12.651Z,948.78
2018-12-04T09:45:51.641Z,948.82
2018-12-04T09:46:51.642Z,948.78
2018-12-04T09:47:51.628Z,948.73
2018-12-04T09:48:51.630Z,948.76
2018-12-04T09:49:51.627Z,948.79
2018-12-04T09:51:12.626Z,948.78
2018-12-04T09:51:51.623Z,948.70
2018-12-04T09:52:51.612Z,948.74
2018-12-04T09:53:52.191Z,948.74
2018-12-04T09:54:51.605Z,948.79
2018-12-04T09:55:51.628Z,948.83
2018-12-04T09:57:12.606Z,948.78
2018-12-04T09:57:51.595Z,948.78
2018-12-04T09:58:51.591Z,948.80
2018-12-04T09:59:51.590Z,948.80
2018-12-04T10:00:51.587Z,948.78
2018-12-04T10:01:51.590Z,948.75
2018-12-04T10:03:12.584Z,948.77
2018-12-04T10:03:51.575Z,948.79
2018-12-04T10:04:51.635Z,948.82
2018-12-04T10:05:51.604Z,948.77
2018-12-04T10:06:51.566Z,948.73
2018-12-04T10:07:51.579Z,948.76
2018-12-04T10:09:12.587Z,948.85
2018-12-04T10:09:51.608Z,948.81
2018-12-04T10:10:51.552Z,948.86
2018-12-04T10:11:51.547Z,948.87
2018-12-04T10:12:51.704Z,948.85
2018-12-04T10:13:51.626Z,948.82
2018-12-04T10:15:12.547Z,948.85
2018-12-04T10:15:51.545Z,948.84
2018-12-04T10:16:51.535Z,948.93
2018-12-04T10:17:51.539Z,948.88
2018-12-04T10:18:51.540Z,948.83
2018-12-04T10:19:51.526Z,948.87
2018-12-04T10:21:12.524Z,948.82
2018-12-04T10:21:51.522Z,948.86
2018-12-04T10:22:51.529Z,948.87
2018-12-04T10:23:51.508Z,948.87
2018-12-04T10:24:51.513Z,948.90
2018-12-04T10:25:51.511Z,948.94
2018-12-04T10:27:12.513Z,948.90
2018-12-04T10:27:51.504Z,948.89
2018-12-04T10:28:51.521Z,948.94
2018-12-04T10:29:51.499Z,948.95
2018-12-04T10:30:51.497Z,948.90
2018-12-04T10:31:55.968Z,948.94
2018-12-04T10:33:12.501Z,948.96
2018-12-04T10:33:51.508Z,948.99
2018-12-04T10:34:51.501Z,948.97
2018-12-04T10:35:51.488Z,948.95
2018-12-04T10:36:51.481Z,948.98
2018-12-04T10:37:51.499Z,948.96
2018-12-04T10:39:12.485Z,948.99
2018-12-04T10:39:51.479Z,949.01
2018-12-04T10:40:51.473Z,949.00
2018-12-04T10:41:51.464Z,949.01
2018-12-04T10:42:51.463Z,949.00
2018-12-04T10:43:51.461Z,948.98
2018-12-04T10:45:12.464Z,949.05
2018-12-04T10:45:51.457Z,949.09
2018-12-04T10:46:51.455Z,949.14
2018-12-04T10:47:51.445Z,949.13
2018-12-04T10:48:51.444Z,949.09
2018-12-04T10:49:51.474Z,949.10
2018-12-04T10:51:12.455Z,949.13
2018-12-04T10:51:51.439Z,949.12
2018-12-04T10:52:51.964Z,949.18
2018-12-04T10:53:51.426Z,949.19
2018-12-04T10:54:51.420Z,949.22
2018-12-04T10:55:51.463Z,949.26
2018-12-04T10:57:12.412Z,949.30
2018-12-04T10:57:51.409Z,949.27
2018-12-04T10:58:51.401Z,949.30
2018-12-04T10:59:51.397Z,949.32
2018-12-04T11:00:51.450Z,949.26
2018-12-04T11:01:51.388Z,949.36
2018-12-04T11:03:14.876Z,949.32
2018-12-04T11:03:53.506Z,949.30
2018-12-04T11:04:51.368Z,949.32
2018-12-04T11:05:51.370Z,949.34
2018-12-04T11:06:51.364Z,949.37
2018-12-04T11:07:51.389Z,949.39
2018-12-04T11:09:12.361Z,949.41
2018-12-04T11:09:51.348Z,949.41
2018-12-04T11:10:51.343Z,949.43
2018-12-04T11:11:51.346Z,949.44
2018-12-04T11:12:51.330Z,949.46
2018-12-04T11:13:51.325Z,949.51
2018-12-04T11:15:12.326Z,949.51
2018-12-04T11:15:51.314Z,949.52
2018-12-04T11:16:51.307Z,949.53
2018-12-04T11:17:51.301Z,949.58
2018-12-04T11:18:51.295Z,949.62
2018-12-04T11:19:51.288Z,949.61
2018-12-04T11:21:12.292Z,949.61
2018-12-04T11:21:51.282Z,949.62
2018-12-04T11:22:51.280Z,949.64
2018-12-04T11:23:51.268Z,949.61
2018-12-04T11:24:51.267Z,949.66
2018-12-04T11:25:51.256Z,949.68
2018-12-04T11:27:12.257Z,949.70
2018-12-04T11:27:51.245Z,949.69
2018-12-04T11:28:51.266Z,949.69
2018-12-04T11:29:51.232Z,949.65
2018-12-04T11:30:51.227Z,949.65
2018-12-04T11:31:51.222Z,949.66
2018-12-04T11:33:12.222Z,949.64
2018-12-04T11:33:51.212Z,949.67
2018-12-04T11:34:51.221Z,949.70
2018-12-04T11:35:51.197Z,949.76
2018-12-04T11:36:51.194Z,949.74
2018-12-04T11:37:51.186Z,949.69
2018-12-04T11:39:12.184Z,949.74
2018-12-04T11:39:51.194Z,949.74
2018-12-04T11:40:51.184Z,949.70
2018-12-04T11:41:51.165Z,949.72
2018-12-04T11:42:51.156Z,949.76
2018-12-04T11:43:51.149Z,949.71
2018-12-04T11:45:12.158Z,949.69
2018-12-04T11:45:51.139Z,949.67
2018-12-04T11:46:51.134Z,949.66
2018-12-04T11:47:51.127Z,949.67
2018-12-04T11:48:51.120Z,949.63
2018-12-04T11:49:51.123Z,949.64
2018-12-04T11:51:12.130Z,949.68
2018-12-04T11:51:51.132Z,949.69
2018-12-04T11:52:51.091Z,949.67
2018-12-04T11:53:51.165Z,949.69
2018-12-04T11:54:51.079Z,949.69
2018-12-04T11:55:51.073Z,949.65
2018-12-04T11:57:12.077Z,949.63
2018-12-04T11:57:51.160Z,949.66
2018-12-04T11:58:51.058Z,949.60
2018-12-04T11:59:51.113Z,949.58
2018-12-04T12:00:51.083Z,949.60
2018-12-04T12:01:51.030Z,949.59
2018-12-04T12:03:12.035Z,949.66
2018-12-04T12:03:51.059Z,949.70
2018-12-04T12:04:51.018Z,949.68
2018-12-04T12:05:51.010Z,949.63
2018-12-04T12:06:51.008Z,949.63
2018-12-04T12:07:51.017Z,949.63
2018-12-04T12:09:12.025Z,949.64
2018-12-04T12:09:50.992Z,949.63
2018-12-04T12:10:50.983Z,949.65
2018-12-04T12:11:50.978Z,949.67
2018-12-04T12:12:50.972Z,949.76
2018-12-04T12:13:50.975Z,949.77
2018-12-04T12:15:17.804Z,949.77
2018-12-04T12:15:50.957Z,949.83
2018-12-04T12:16:50.953Z,949.86
2018-12-04T12:17:50.953Z,949.92
2018-12-04T12:18:50.934Z,949.90
2018-12-04T12:19:50.941Z,949.88
2018-12-04T12:21:11.943Z,949.90
2018-12-04T12:21:50.945Z,949.88
2018-12-04T12:22:50.917Z,949.94
2018-12-04T12:23:50.914Z,949.93
2018-12-04T12:24:50.910Z,949.91
2018-12-04T12:25:50.903Z,949.85
2018-12-04T12:27:11.905Z,949.93
2018-12-04T12:27:50.887Z,949.90
2018-12-04T12:28:50.890Z,949.96
2018-12-04T12:29:50.882Z,949.93